createdAt,value
2023-03-15T05:11:37.908Z,1.80
2023-03-15T05:14:06.446Z,1.60
2023-03-15T05:16:35.008Z,1.70
2023-03-15T05:21:32.588Z,1.70
2023-03-15T05:24:01.152Z,1.80
2023-03-15T05:26:29.590Z,1.80
2023-03-15T05:28:58.107Z,1.90
2023-03-15T05:31:26.599Z,1.90
2023-03-15T05:33:55.128Z,1.90
2023-03-15T05:36:23.660Z,1.90
2023-03-15T05:38:52.171Z,1.90
2023-03-15T05:41:21.077Z,1.90
2023-03-15T05:43:49.593Z,1.80
2023-03-15T05:46:18.437Z,1.80
2023-03-15T05:48:46.915Z,1.80
2023-03-15T05:51:15.573Z,1.70
2023-03-15T05:53:46.008Z,1.70
2023-03-15T05:56:14.504Z,1.80
2023-03-15T05:58:42.996Z,1.70
2023-03-15T06:01:11.844Z,1.70
2023-03-15T06:03:40.431Z,1.70
2023-03-15T06:06:09.225Z,1.90
2023-03-15T06:08:37.813Z,1.90
2023-03-15T06:11:06.332Z,1.90
2023-03-15T06:13:34.872Z,2.00
2023-03-15T06:16:03.373Z,2.00
2023-03-15T06:18:31.950Z,2.00
2023-03-15T06:21:00.459Z,2.00
2023-03-15T06:23:28.994Z,2.00
2023-03-15T06:25:57.486Z,2.10
2023-03-15T06:28:25.995Z,2.10
2023-03-15T06:30:54.838Z,2.10
2023-03-15T06:33:24.333Z,2.20
2023-03-15T06:35:52.915Z,2.20
2023-03-15T06:38:21.450Z,2.30
2023-03-15T06:40:49.991Z,2.30
2023-03-15T06:43:19.590Z,2.30
2023-03-15T06:45:48.251Z,2.40
2023-03-15T06:48:17.526Z,2.30
2023-03-15T06:50:47.883Z,2.40
2023-03-15T06:53:17.704Z,2.50
2023-03-15T06:55:47.659Z,2.60
2023-03-15T06:58:16.243Z,2.60
2023-03-15T07:00:44.828Z,2.70
2023-03-15T07:03:13.332Z,2.80
2023-03-15T07:05:41.800Z,2.80
2023-03-15T07:08:10.462Z,2.80
2023-03-15T07:10:38.956Z,2.70
2023-03-15T07:13:07.489Z,2.70
2023-03-15T07:15:37.881Z,2.70
2023-03-15T07:18:06.449Z,2.90
2023-03-15T07:20:37.627Z,3.10
2023-03-15T07:23:05.759Z,3.00
2023-03-15T07:25:44.907Z,3.10
2023-03-15T07:28:04.814Z,3.20
2023-03-15T07:30:33.787Z,3.10
2023-03-15T07:35:30.607Z,3.50
2023-03-15T07:37:59.439Z,3.70
2023-03-15T07:40:28.104Z,3.70
2023-03-15T07:50:23.171Z,4.00
2023-03-15T07:52:51.707Z,5.80
2023-03-15T08:20:14.246Z,5.80
